createdAt,value
2022-08-05T00:01:00.962Z,21.67
2022-08-05T00:03:49.612Z,21.62
2022-08-05T00:06:32.268Z,21.58
2022-08-05T00:09:12.724Z,21.54
2022-08-05T00:11:48.325Z,21.51
2022-08-05T00:14:21.874Z,21.46
2022-08-05T00:17:01.885Z,21.43
2022-08-05T00:20:01.923Z,21.40
2022-08-05T00:22:27.419Z,21.37
2022-08-05T00:24:59.519Z,21.34
2022-08-05T00:27:36.113Z,21.31
2022-08-05T00:30:11.393Z,21.28
2022-08-05T00:32:43.785Z,21.24
2022-08-05T00:35:20.329Z,21.18
2022-08-05T00:37:54.130Z,21.14
2022-08-05T00:40:29.392Z,21.09
2022-08-05T00:43:07.430Z,21.05
2022-08-05T00:45:43.955Z,21.02
2022-08-05T00:48:31.287Z,20.99
2022-08-05T00:51:08.842Z,20.95
2022-08-05T00:54:02.362Z,20.91
2022-08-05T00:56:35.343Z,20.86
2022-08-05T00:59:08.823Z,20.85
2022-08-05T01:01:48.392Z,20.83
2022-08-05T01:04:30.079Z,20.80
2022-08-05T01:07:05.150Z,20.78
2022-08-05T01:09:37.676Z,20.77
2022-08-05T01:12:18.826Z,20.75
2022-08-05T01:14:59.011Z,20.72
2022-08-05T01:17:44.001Z,20.70
2022-08-05T01:20:27.583Z,20.68
2022-08-05T01:23:23.269Z,20.67
2022-08-05T01:26:08.883Z,20.66
2022-08-05T01:28:48.035Z,20.65
2022-08-05T01:31:29.185Z,20.65
2022-08-05T01:34:05.892Z,20.64
2022-08-05T01:36:47.000Z,20.63
2022-08-05T01:39:46.620Z,20.62
2022-08-05T01:42:17.799Z,20.61
2022-08-05T01:44:54.104Z,20.59
2022-08-05T01:47:38.620Z,20.57
2022-08-05T01:50:16.094Z,20.54
2022-08-05T01:52:51.695Z,20.50
2022-08-05T01:55:28.986Z,20.48
2022-08-05T01:58:29.946Z,20.46
2022-08-05T02:01:01.240Z,20.44
2022-08-05T02:03:37.949Z,20.43
2022-08-05T02:06:37.252Z,20.39
2022-08-05T02:09:06.502Z,20.36
2022-08-05T02:11:52.631Z,20.33
2022-08-05T02:14:32.248Z,20.31
2022-08-05T02:17:17.020Z,20.29
2022-08-05T02:20:12.553Z,20.28
2022-08-05T02:22:48.235Z,20.26
2022-08-05T02:25:26.144Z,20.25
2022-08-05T02:28:08.664Z,20.24
2022-08-05T02:30:54.146Z,20.22
2022-08-05T02:33:36.242Z,20.21
2022-08-05T02:36:16.069Z,20.19
2022-08-05T02:38:53.387Z,20.18
2022-08-05T02:41:28.604Z,20.16
2022-08-05T02:44:13.347Z,20.14
2022-08-05T02:46:58.387Z,20.12
2022-08-05T02:49:37.667Z,20.12
2022-08-05T02:52:29.832Z,20.10
2022-08-05T02:55:05.524Z,20.08
2022-08-05T02:58:09.912Z,20.07
2022-08-05T03:00:38.182Z,20.06
2022-08-05T03:03:12.251Z,20.05
2022-08-05T03:06:55.042Z,20.04
2022-08-05T03:08:38.649Z,20.04
2022-08-05T03:11:57.059Z,20.03
2022-08-05T03:14:15.180Z,20.02
2022-08-05T03:16:48.250Z,20.01
2022-08-05T03:19:34.661Z,20.00
2022-08-05T03:22:16.467Z,20.00
2022-08-05T03:24:52.684Z,19.98
2022-08-05T03:27:39.207Z,19.98
2022-08-05T03:30:18.461Z,19.98
2022-08-05T03:32:53.186Z,19.99
2022-08-05T03:35:25.916Z,20.00
2022-08-05T03:38:00.133Z,20.01
2022-08-05T03:40:32.814Z,20.02
2022-08-05T03:43:58.603Z,20.03
2022-08-05T03:45:58.799Z,20.05
2022-08-05T03:48:35.387Z,20.07
2022-08-05T03:52:36.628Z,20.09
2022-08-05T03:55:52.519Z,20.11
2022-08-05T03:57:16.389Z,20.12
2022-08-05T03:59:55.622Z,20.14
2022-08-05T04:02:38.438Z,20.15
2022-08-05T04:05:18.924Z,20.18
2022-08-05T04:07:57.968Z,20.20
2022-08-05T04:10:37.928Z,20.21
2022-08-05T04:13:10.628Z,20.23
2022-08-05T04:16:02.774Z,20.26
2022-08-05T04:18:35.502Z,20.30
2022-08-05T04:21:11.132Z,20.34
2022-08-05T04:24:00.230Z,20.37
2022-08-05T04:26:36.186Z,20.41
2022-08-05T04:29:08.500Z,20.44
2022-08-05T04:31:41.363Z,20.47
2022-08-05T04:34:31.320Z,20.51
2022-08-05T04:37:05.741Z,20.56
2022-08-05T04:39:37.819Z,20.62
2022-08-05T04:42:12.073Z,20.69
2022-08-05T04:44:44.195Z,20.75
2022-08-05T04:47:20.023Z,20.83
2022-08-05T04:50:02.968Z,20.92
2022-08-05T04:52:43.935Z,21.01
2022-08-05T04:55:17.240Z,21.09
2022-08-05T04:58:06.597Z,21.22
2022-08-05T05:00:45.142Z,21.33
2022-08-05T05:03:22.913Z,21.47
2022-08-05T05:06:36.668Z,21.63
2022-08-05T05:08:49.942Z,21.87
2022-08-05T05:11:22.800Z,22.09
2022-08-05T05:14:16.242Z,22.54
2022-08-05T05:16:48.504Z,23.62
2022-08-05T05:19:26.526Z,24.99
2022-08-05T05:22:00.016Z,26.62
2022-08-05T05:24:58.597Z,28.36
2022-08-05T05:27:44.750Z,29.81
2022-08-05T05:30:30.410Z,31.07
2022-08-05T05:33:15.977Z,32.15
2022-08-05T05:35:50.272Z,33.29
2022-08-05T05:38:27.500Z,33.89
2022-08-05T05:41:00.240Z,34.42
2022-08-05T05:43:58.237Z,35.22
2022-08-05T05:46:24.473Z,36.32
2022-08-05T05:48:57.501Z,37.33
2022-08-05T05:51:30.003Z,38.17
2022-08-05T05:54:22.438Z,39.11
2022-08-05T05:57:19.070Z,39.78
2022-08-05T05:59:51.396Z,39.95
2022-08-05T06:02:37.476Z,39.87
2022-08-05T06:05:16.631Z,39.87
2022-08-05T06:07:57.812Z,39.78
2022-08-05T06:10:36.717Z,40.16
2022-08-05T06:13:09.884Z,40.24
2022-08-05T06:16:28.741Z,40.37
2022-08-05T06:18:36.510Z,40.71
2022-08-05T06:21:18.494Z,40.72
2022-08-05T06:23:51.256Z,40.86
2022-08-05T06:26:25.065Z,41.11
2022-08-05T06:28:57.346Z,41.60
2022-08-05T06:31:30.564Z,41.77
2022-08-05T06:34:08.905Z,42.02
2022-08-05T06:36:57.551Z,42.26
2022-08-05T06:39:31.310Z,41.94
2022-08-05T06:42:04.971Z,41.54
2022-08-05T06:44:37.030Z,41.60
2022-08-05T06:48:11.505Z,41.44
2022-08-05T06:50:05.393Z,41.44
2022-08-05T06:52:40.453Z,41.22
2022-08-05T06:55:13.291Z,41.37
2022-08-05T06:57:57.282Z,40.88
2022-08-05T07:00:35.845Z,40.60
2022-08-05T07:03:13.414Z,41.14
2022-08-05T07:05:48.861Z,40.97
2022-08-05T07:08:23.443Z,41.39
2022-08-05T07:10:57.251Z,42.19
2022-08-05T07:13:59.405Z,42.29
2022-08-05T07:17:56.010Z,42.11
2022-08-05T07:20:31.226Z,41.42
2022-08-05T07:22:35.133Z,41.00
2022-08-05T07:25:22.779Z,40.71
2022-08-05T07:28:04.206Z,40.84
2022-08-05T07:30:40.835Z,41.19
2022-08-05T07:33:17.112Z,41.43
2022-08-05T07:36:02.515Z,41.56
2022-08-05T07:38:44.204Z,41.57
2022-08-05T07:42:12.941Z,41.21
2022-08-05T07:44:19.304Z,41.12
2022-08-05T07:46:51.859Z,40.99
2022-08-05T07:49:23.957Z,40.88
2022-08-05T07:51:56.233Z,40.72
2022-08-05T07:54:30.207Z,40.97
2022-08-05T07:57:23.666Z,41.14
2022-08-05T07:59:57.105Z,41.23
2022-08-05T08:02:31.413Z,40.96
2022-08-05T08:05:22.546Z,40.96
2022-08-05T08:07:59.655Z,40.48
2022-08-05T08:10:32.852Z,40.00
2022-08-05T08:13:05.249Z,40.09
2022-08-05T08:16:35.469Z,40.45
2022-08-05T08:18:30.060Z,40.55
2022-08-05T08:21:04.041Z,40.52
2022-08-05T08:24:03.101Z,40.64
2022-08-05T08:26:34.634Z,40.90
2022-08-05T08:30:03.126Z,41.19
2022-08-05T08:31:58.791Z,41.53
2022-08-05T08:34:33.306Z,41.60
2022-08-05T08:37:06.277Z,41.45
2022-08-05T08:39:49.290Z,41.01
2022-08-05T08:42:34.053Z,40.74
2022-08-05T08:45:26.738Z,40.41
2022-08-05T08:48:10.634Z,39.74
2022-08-05T08:51:22.572Z,39.46
2022-08-05T08:53:47.746Z,39.42
2022-08-05T08:56:22.174Z,39.51
2022-08-05T08:58:54.362Z,39.54
2022-08-05T09:01:26.627Z,39.58
2022-08-05T09:04:00.488Z,39.70
2022-08-05T09:06:36.395Z,39.79
2022-08-05T09:09:08.909Z,39.81
2022-08-05T09:11:52.037Z,39.65
2022-08-05T09:14:58.275Z,39.43
2022-08-05T09:17:41.393Z,39.18
2022-08-05T09:20:21.059Z,38.71
2022-08-05T09:23:18.677Z,38.25
2022-08-05T09:26:01.420Z,37.49
2022-08-05T09:28:37.665Z,37.01
2022-08-05T09:31:23.318Z,36.74
2022-08-05T09:34:07.124Z,36.61
2022-08-05T09:36:54.167Z,36.88
2022-08-05T09:39:41.550Z,37.10
2022-08-05T09:42:24.343Z,37.00
2022-08-05T09:46:05.207Z,37.01
2022-08-05T09:48:01.801Z,37.27
2022-08-05T09:50:43.839Z,37.34
2022-08-05T09:53:26.003Z,37.04
2022-08-05T09:56:13.108Z,36.94
2022-08-05T09:58:59.248Z,36.66
2022-08-05T10:01:33.765Z,36.61
2022-08-05T10:04:10.591Z,36.41
2022-08-05T10:06:59.014Z,36.30
2022-08-05T10:09:45.337Z,36.58
2022-08-05T10:12:18.925Z,36.62
2022-08-05T10:15:20.196Z,36.59
2022-08-05T10:18:16.734Z,36.63
2022-08-05T10:20:52.709Z,36.39
2022-08-05T10:23:55.517Z,36.07
2022-08-05T10:26:24.430Z,35.94
2022-08-05T10:29:05.253Z,35.69
2022-08-05T10:32:55.767Z,35.55
2022-08-05T10:34:32.385Z,35.47
2022-08-05T10:37:04.663Z,35.28
2022-08-05T10:40:04.059Z,35.23
2022-08-05T10:42:38.586Z,35.26
2022-08-05T10:45:23.319Z,35.18
2022-08-05T10:48:30.201Z,35.17
2022-08-05T10:51:22.074Z,35.25
2022-08-05T10:54:02.060Z,35.29
2022-08-05T10:56:56.069Z,35.21
2022-08-05T11:00:02.765Z,34.97
2022-08-05T11:02:38.044Z,34.86
2022-08-05T11:05:13.600Z,34.50
2022-08-05T11:08:21.720Z,34.27
2022-08-05T11:11:00.981Z,33.90
2022-08-05T11:13:57.692Z,33.69
2022-08-05T11:16:33.688Z,33.57
2022-08-05T11:20:17.105Z,33.49
2022-08-05T11:22:49.982Z,33.35
2022-08-05T11:26:04.251Z,33.08
2022-08-05T11:28:49.868Z,32.93
2022-08-05T11:31:57.341Z,32.79
2022-08-05T11:34:50.781Z,32.66
2022-08-05T11:38:29.585Z,32.64
2022-08-05T11:41:35.621Z,32.57
2022-08-05T11:44:04.819Z,32.40
2022-08-05T11:47:09.970Z,32.41
2022-08-05T11:49:34.621Z,32.44
2022-08-05T11:52:08.661Z,32.47
2022-08-05T11:54:48.505Z,32.52
2022-08-05T11:58:08.314Z,32.58
2022-08-05T12:00:31.251Z,32.75
2022-08-05T12:03:28.570Z,32.66
2022-08-05T12:06:10.132Z,32.57
2022-08-05T12:08:50.020Z,32.60
2022-08-05T12:11:28.373Z,32.61
2022-08-05T12:14:12.913Z,32.73
2022-08-05T12:16:48.784Z,32.96
2022-08-05T12:20:25.800Z,33.01
2022-08-05T12:22:17.974Z,32.93
2022-08-05T12:24:56.115Z,32.91
2022-08-05T12:27:33.064Z,32.90
2022-08-05T12:30:09.013Z,32.77
2022-08-05T12:32:51.173Z,32.67
2022-08-05T12:35:36.984Z,32.60
2022-08-05T12:38:12.642Z,32.56
2022-08-05T12:40:48.084Z,32.50
2022-08-05T12:43:24.327Z,32.44
2022-08-05T12:46:04.957Z,32.37
2022-08-05T12:48:42.543Z,32.37
2022-08-05T12:51:21.706Z,32.32
2022-08-05T12:54:14.678Z,32.40
2022-08-05T12:56:52.851Z,32.47
2022-08-05T12:59:27.446Z,32.37
2022-08-05T13:02:27.380Z,32.25
2022-08-05T13:05:07.498Z,32.16
2022-08-05T13:08:01.002Z,32.24
2022-08-05T13:10:34.399Z,32.15
2022-08-05T13:13:09.410Z,32.10
2022-08-05T13:16:02.073Z,32.11
2022-08-05T13:18:51.666Z,32.14
2022-08-05T13:21:24.003Z,32.19
2022-08-05T13:24:01.080Z,32.21
2022-08-05T13:26:36.695Z,32.15
2022-08-05T13:29:08.832Z,32.13
2022-08-05T13:32:04.047Z,32.16
2022-08-05T13:34:34.147Z,32.19
2022-08-05T13:37:10.030Z,32.19
2022-08-05T13:40:15.958Z,32.19
2022-08-05T13:42:34.349Z,32.29
2022-08-05T13:45:08.086Z,32.42
2022-08-05T13:48:09.782Z,32.51
2022-08-05T13:50:34.441Z,32.33
2022-08-05T13:53:08.928Z,32.18
2022-08-05T13:55:50.255Z,32.13
2022-08-05T13:58:32.403Z,32.04
2022-08-05T14:01:05.312Z,31.97
2022-08-05T14:03:39.350Z,31.87
2022-08-05T14:06:26.090Z,31.80
2022-08-05T14:08:59.508Z,31.77
2022-08-05T14:11:31.751Z,31.73
2022-08-05T14:14:25.449Z,31.69
2022-08-05T14:16:59.013Z,31.72
2022-08-05T14:19:32.895Z,31.77
2022-08-05T14:22:25.364Z,31.71
2022-08-05T14:25:02.856Z,31.66
2022-08-05T14:27:38.621Z,31.59
2022-08-05T14:30:21.344Z,31.54
2022-08-05T14:32:53.488Z,31.51
2022-08-05T14:35:50.477Z,31.48
2022-08-05T14:38:32.242Z,31.49
2022-08-05T14:41:08.295Z,31.44
2022-08-05T14:43:59.058Z,31.38
2022-08-05T14:46:34.973Z,31.34
2022-08-05T14:49:08.418Z,31.36
2022-08-05T14:51:43.209Z,31.40
2022-08-05T14:54:28.066Z,31.40
2022-08-05T14:57:05.146Z,31.31
2022-08-05T14:59:41.880Z,31.20
2022-08-05T15:02:15.936Z,31.12
2022-08-05T15:04:49.907Z,31.04
2022-08-05T15:08:08.913Z,30.96
2022-08-05T15:10:14.411Z,30.86
2022-08-05T15:13:00.596Z,30.78
2022-08-05T15:15:54.960Z,30.73
2022-08-05T15:18:28.086Z,30.66
2022-08-05T15:21:07.443Z,30.58
2022-08-05T15:23:40.239Z,30.53
2022-08-05T15:26:12.470Z,30.49
2022-08-05T15:28:44.641Z,30.45
2022-08-05T15:31:24.192Z,30.37
2022-08-05T15:34:31.497Z,30.30
2022-08-05T15:37:03.557Z,30.26
2022-08-05T15:41:00.571Z,30.23
2022-08-05T15:42:54.051Z,30.20
2022-08-05T15:45:38.216Z,30.19
2022-08-05T15:48:14.335Z,30.16
2022-08-05T15:50:49.144Z,30.15
2022-08-05T15:53:23.091Z,30.12
2022-08-05T15:56:05.582Z,30.11
2022-08-05T15:58:39.625Z,30.09
2022-08-05T16:01:17.427Z,30.08
2022-08-05T16:03:51.076Z,30.07
2022-08-05T16:06:24.261Z,30.06
2022-08-05T16:08:56.278Z,30.05
2022-08-05T16:11:39.958Z,30.03
2022-08-05T16:14:17.201Z,30.03
2022-08-05T16:16:50.814Z,30.03
2022-08-05T16:20:03.754Z,30.03
2022-08-05T16:22:15.649Z,30.02
2022-08-05T16:24:51.837Z,30.01
2022-08-05T16:27:46.753Z,29.99
2022-08-05T16:30:26.496Z,29.98
2022-08-05T16:33:01.569Z,29.98
2022-08-05T16:35:42.210Z,29.97
2022-08-05T16:38:25.610Z,29.95
2022-08-05T16:42:12.301Z,29.93
2022-08-05T16:43:56.095Z,29.90
2022-08-05T16:46:28.678Z,29.90
2022-08-05T16:49:00.702Z,29.88
2022-08-05T16:51:42.834Z,29.88
2022-08-05T16:54:28.937Z,29.86
2022-08-05T16:57:04.552Z,29.85
2022-08-05T17:00:01.750Z,29.85
2022-08-05T17:02:38.226Z,29.84
2022-08-05T17:05:11.999Z,29.82
2022-08-05T17:07:53.090Z,29.79
2022-08-05T17:10:30.440Z,29.78
2022-08-05T17:13:02.834Z,29.77
2022-08-05T17:15:48.949Z,29.76
2022-08-05T17:18:23.246Z,29.74
2022-08-05T17:20:55.781Z,29.72
2022-08-05T17:24:03.383Z,29.69
2022-08-05T17:26:20.467Z,29.66
2022-08-05T17:28:55.740Z,29.63
2022-08-05T17:31:41.267Z,29.60
2022-08-05T17:34:20.179Z,29.57
2022-08-05T17:37:04.472Z,29.54
2022-08-05T17:39:37.217Z,29.50
2022-08-05T17:42:17.919Z,29.46
2022-08-05T17:44:52.848Z,29.42
2022-08-05T17:47:25.219Z,29.38
2022-08-05T17:50:03.870Z,29.34
2022-08-05T17:52:52.600Z,29.29
2022-08-05T17:55:37.638Z,29.24
2022-08-05T17:58:14.371Z,29.19
2022-08-05T18:00:50.719Z,29.14
2022-08-05T18:03:56.259Z,29.10
2022-08-05T18:06:17.230Z,29.07
2022-08-05T18:08:52.485Z,29.04
2022-08-05T18:11:32.515Z,29.01
2022-08-05T18:14:07.489Z,28.97
2022-08-05T18:16:51.853Z,28.93
2022-08-05T18:19:25.986Z,28.88
2022-08-05T18:22:07.862Z,28.84
2022-08-05T18:24:43.579Z,28.80
2022-08-05T18:27:18.776Z,28.76
2022-08-05T18:29:54.590Z,28.73
2022-08-05T18:32:28.199Z,28.70
2022-08-05T18:35:02.013Z,28.67
2022-08-05T18:37:40.384Z,28.64
2022-08-05T18:40:34.545Z,28.61
2022-08-05T18:43:09.191Z,28.55
2022-08-05T18:45:49.001Z,28.51
2022-08-05T18:48:31.252Z,28.46
2022-08-05T18:52:04.446Z,28.41
2022-08-05T18:54:14.763Z,28.35
2022-08-05T18:56:51.028Z,28.29
2022-08-05T18:59:50.672Z,28.25
2022-08-05T19:02:27.116Z,28.20
2022-08-05T19:06:06.312Z,28.16
2022-08-05T19:07:57.012Z,28.13
2022-08-05T19:10:31.593Z,28.08
2022-08-05T19:13:03.893Z,28.04
2022-08-05T19:15:59.407Z,28.00
2022-08-05T19:18:29.939Z,27.96
2022-08-05T19:21:03.437Z,27.93
2022-08-05T19:24:07.125Z,27.89
2022-08-05T19:26:30.906Z,27.85
2022-08-05T19:29:03.081Z,27.83
2022-08-05T19:31:50.640Z,27.89
2022-08-05T19:34:24.073Z,28.09
2022-08-05T19:36:56.066Z,28.30
2022-08-05T19:39:30.109Z,28.52
2022-08-05T19:42:07.679Z,28.74
2022-08-05T19:44:45.212Z,28.95
2022-08-05T19:47:19.121Z,29.13
2022-08-05T19:49:51.489Z,29.25
2022-08-05T19:52:31.377Z,29.34
2022-08-05T19:55:06.896Z,29.43
2022-08-05T19:57:49.217Z,29.51
2022-08-05T20:00:33.370Z,29.56
2022-08-05T20:03:09.079Z,29.59
2022-08-05T20:05:50.167Z,29.64
2022-08-05T20:08:24.548Z,29.69
2022-08-05T20:10:58.032Z,29.72
2022-08-05T20:13:58.262Z,29.73
2022-08-05T20:16:24.877Z,29.70
2022-08-05T20:18:57.079Z,29.68
2022-08-05T20:21:29.224Z,29.66
2022-08-05T20:24:03.056Z,29.63
2022-08-05T20:26:35.224Z,29.58
2022-08-05T20:29:07.389Z,29.53
2022-08-05T20:31:59.755Z,29.46
2022-08-05T20:34:32.102Z,29.39
2022-08-05T20:37:04.317Z,29.31
2022-08-05T20:39:51.680Z,29.21
2022-08-05T20:42:24.147Z,29.15
2022-08-05T20:45:00.695Z,29.04
2022-08-05T20:47:35.233Z,28.99
2022-08-05T20:50:13.510Z,28.92
2022-08-05T20:52:47.720Z,28.86
2022-08-05T20:56:07.965Z,28.81
2022-08-05T20:58:15.314Z,28.73
2022-08-05T21:00:52.045Z,28.68
2022-08-05T21:03:26.809Z,28.62
2022-08-05T21:05:59.056Z,28.57
2022-08-05T21:08:41.950Z,28.53
2022-08-05T21:12:09.558Z,28.50
2022-08-05T21:14:08.619Z,28.44
2022-08-05T21:16:44.353Z,28.36
